sensor_id;sensor_type;location;lat;lon;timestamp;P1;P2;P0
60816;PMS5003;51921;51.518;-3.188;2022-10-18T00:01:37;10;9;
60816;PMS5003;51921;51.518;-3.188;2022-10-18T00:04:02;11;11;
60816;PMS5003;51921;51.518;-3.188;2022-10-18T00:06:33;9;8;
60816;PMS5003;51921;51.518;-3.188;2022-10-18T00:08:53;10;8;
60816;PMS5003;51921;51.518;-3.188;2022-10-18T00:11:19;8;7;
60816;PMS5003;51921;51.518;-3.188;2022-10-18T00:13:44;7;7;
60816;PMS5003;51921;51.518;-3.188;2022-10-18T00:16:11;8;7;
60816;PMS5003;51921;51.518;-3.188;2022-10-18T00:18:35;9;9;
60816;PMS5003;51921;51.518;-3.188;2022-10-18T00:21:01;10;9;
60816;PMS5003;51921;51.518;-3.188;2022-10-18T00:23:27;8;7;
60816;PMS5003;51921;51.518;-3.188;2022-10-18T00:28:17;10;9;
60816;PMS5003;51921;51.518;-3.188;2022-10-18T00:30:43;8;8;
60816;PMS5003;51921;51.518;-3.188;2022-10-18T00:33:08;7;7;
60816;PMS5003;51921;51.518;-3.188;2022-10-18T00:35:34;9;7;
60816;PMS5003;51921;51.518;-3.188;2022-10-18T00:37:59;9;8;
60816;PMS5003;51921;51.518;-3.188;2022-10-18T00:40:25;8;7;
60816;PMS5003;51921;51.518;-3.188;2022-10-18T00:42:50;8;8;
60816;PMS5003;51921;51.518;-3.188;2022-10-18T00:45:18;11;11;
60816;PMS5003;51921;51.518;-3.188;2022-10-18T00:47:41;7;7;
60816;PMS5003;51921;51.518;-3.188;2022-10-18T00:50:07;8;8;
60816;PMS5003;51921;51.518;-3.188;2022-10-18T00:52:33;9;9;
60816;PMS5003;51921;51.518;-3.188;2022-10-18T00:54:57;7;7;
60816;PMS5003;51921;51.518;-3.188;2022-10-18T00:57:23;10;8;
60816;PMS5003;51921;51.518;-3.188;2022-10-18T00:59:48;9;9;
60816;PMS5003;51921;51.518;-3.188;2022-10-18T01:02:14;10;9;
60816;PMS5003;51921;51.518;-3.188;2022-10-18T01:04:39;9;8;
60816;PMS5003;51921;51.518;-3.188;2022-10-18T01:07:08;9;8;
60816;PMS5003;51921;51.518;-3.188;2022-10-18T01:09:31;9;9;
60816;PMS5003;51921;51.518;-3.188;2022-10-18T01:12:02;10;9;
60816;PMS5003;51921;51.518;-3.188;2022-10-18T01:14:25;10;9;
60816;PMS5003;51921;51.518;-3.188;2022-10-18T01:16:49;11;8;
60816;PMS5003;51921;51.518;-3.188;2022-10-18T01:19:19;8;8;
60816;PMS5003;51921;51.518;-3.188;2022-10-18T01:21:41;9;9;
60816;PMS5003;51921;51.518;-3.188;2022-10-18T01:24:12;10;9;
60816;PMS5003;51921;51.518;-3.188;2022-10-18T01:26:35;7;6;
60816;PMS5003;51921;51.518;-3.188;2022-10-18T01:28:56;10;10;
60816;PMS5003;51921;51.518;-3.188;2022-10-18T01:31:20;10;8;
60816;PMS5003;51921;51.518;-3.188;2022-10-18T01:33:46;10;9;
60816;PMS5003;51921;51.518;-3.188;2022-10-18T01:36:13;9;9;
60816;PMS5003;51921;51.518;-3.188;2022-10-18T01:38:37;8;8;
60816;PMS5003;51921;51.518;-3.188;2022-10-18T01:41:02;8;7;
60816;PMS5003;51921;51.518;-3.188;2022-10-18T01:43:27;8;8;
60816;PMS5003;51921;51.518;-3.188;2022-10-18T01:45:53;8;8;
60816;PMS5003;51921;51.518;-3.188;2022-10-18T01:48:19;6;6;
60816;PMS5003;51921;51.518;-3.188;2022-10-18T01:50:44;8;8;
60816;PMS5003;51921;51.518;-3.188;2022-10-18T01:55:36;7;7;
60816;PMS5003;51921;51.518;-3.188;2022-10-18T01:58:02;7;6;
60816;PMS5003;51921;51.518;-3.188;2022-10-18T02:00:27;7;7;
60816;PMS5003;51921;51.518;-3.188;2022-10-18T02:02:52;7;7;
60816;PMS5003;51921;51.518;-3.188;2022-10-18T02:05:19;8;6;
60816;PMS5003;51921;51.518;-3.188;2022-10-18T02:07:44;5;5;
60816;PMS5003;51921;51.518;-3.188;2022-10-18T02:10:10;10;10;
60816;PMS5003;51921;51.518;-3.188;2022-10-18T02:12:34;9;9;
60816;PMS5003;51921;51.518;-3.188;2022-10-18T02:14:59;7;6;
60816;PMS5003;51921;51.518;-3.188;2022-10-18T02:17:24;11;7;
60816;PMS5003;51921;51.518;-3.188;2022-10-18T02:19:51;7;7;
60816;PMS5003;51921;51.518;-3.188;2022-10-18T02:22:16;9;8;
60816;PMS5003;51921;51.518;-3.188;2022-10-18T02:24:43;6;6;
60816;PMS5003;51921;51.518;-3.188;2022-10-18T02:27:07;6;5;
60816;PMS5003;51921;51.518;-3.188;2022-10-18T02:29:32;8;7;
60816;PMS5003;51921;51.518;-3.188;2022-10-18T02:31:59;5;5;
60816;PMS5003;51921;51.518;-3.188;2022-10-18T02:34:24;8;7;
60816;PMS5003;51921;51.518;-3.188;2022-10-18T02:36:50;6;5;
60816;PMS5003;51921;51.518;-3.188;2022-10-18T02:39:16;5;4;
60816;PMS5003;51921;51.518;-3.188;2022-10-18T02:41:40;6;6;
60816;PMS5003;51921;51.518;-3.188;2022-10-18T02:44:05;5;5;
60816;PMS5003;51921;51.518;-3.188;2022-10-18T02:46:32;5;4;
60816;PMS5003;51921;51.518;-3.188;2022-10-18T02:48:57;7;7;
60816;PMS5003;51921;51.518;-3.188;2022-10-18T02:51:22;6;6;
60816;PMS5003;51921;51.518;-3.188;2022-10-18T02:53:47;6;5;
60816;PMS5003;51921;51.518;-3.188;2022-10-18T02:56:13;6;5;
60816;PMS5003;51921;51.518;-3.188;2022-10-18T02:58:38;6;5;
60816;PMS5003;51921;51.518;-3.188;2022-10-18T03:01:04;8;7;
60816;PMS5003;51921;51.518;-3.188;2022-10-18T03:03:29;5;5;
60816;PMS5003;51921;51.518;-3.188;2022-10-18T03:05:55;8;6;
60816;PMS5003;51921;51.518;-3.188;2022-10-18T03:08:20;6;6;
60816;PMS5003;51921;51.518;-3.188;2022-10-18T03:10:46;5;4;
60816;PMS5003;51921;51.518;-3.188;2022-10-18T03:13:12;10;8;
60816;PMS5003;51921;51.518;-3.188;2022-10-18T03:15:37;7;6;
60816;PMS5003;51921;51.518;-3.188;2022-10-18T03:18:03;6;6;
60816;PMS5003;51921;51.518;-3.188;2022-10-18T03:20:28;7;7;
60816;PMS5003;51921;51.518;-3.188;2022-10-18T03:22:54;5;5;
60816;PMS5003;51921;51.518;-3.188;2022-10-18T03:25:20;4;4;
60816;PMS5003;51921;51.518;-3.188;2022-10-18T03:27:45;6;5;
60816;PMS5003;51921;51.518;-3.188;2022-10-18T03:30:11;5;5;
60816;PMS5003;51921;51.518;-3.188;2022-10-18T03:32:36;5;5;
60816;PMS5003;51921;51.518;-3.188;2022-10-18T03:35:02;8;6;
60816;PMS5003;51921;51.518;-3.188;2022-10-18T03:37:27;5;4;
60816;PMS5003;51921;51.518;-3.188;2022-10-18T03:39:53;5;4;
60816;PMS5003;51921;51.518;-3.188;2022-10-18T03:42:18;6;6;
60816;PMS5003;51921;51.518;-3.188;2022-10-18T03:44:44;5;5;
60816;PMS5003;51921;51.518;-3.188;2022-10-18T03:47:09;4;3;
60816;PMS5003;51921;51.518;-3.188;2022-10-18T03:49:35;7;6;
60816;PMS5003;51921;51.518;-3.188;2022-10-18T03:52:00;6;6;
60816;PMS5003;51921;51.518;-3.188;2022-10-18T03:54:26;5;5;
60816;PMS5003;51921;51.518;-3.188;2022-10-18T03:56:51;7;6;
60816;PMS5003;51921;51.518;-3.188;2022-10-18T03:59:17;4;4;
60816;PMS5003;51921;51.518;-3.188;2022-10-18T04:01:43;6;5;
60816;PMS5003;51921;51.518;-3.188;2022-10-18T04:04:08;5;4;
60816;PMS5003;51921;51.518;-3.188;2022-10-18T04:06:34;4;4;
60816;PMS5003;51921;51.518;-3.188;2022-10-18T04:08:59;4;4;
60816;PMS5003;51921;51.518;-3.188;2022-10-18T04:11:25;4;4;
60816;PMS5003;51921;51.518;-3.188;2022-10-18T04:13:50;3;3;
60816;PMS5003;51921;51.518;-3.188;2022-10-18T04:16:16;3;3;
60816;PMS5003;51921;51.518;-3.188;2022-10-18T04:18:41;4;3;
60816;PMS5003;51921;51.518;-3.188;2022-10-18T04:21:07;4;4;
60816;PMS5003;51921;51.518;-3.188;2022-10-18T04:23:33;5;5;
60816;PMS5003;51921;51.518;-3.188;2022-10-18T04:25:58;5;5;
60816;PMS5003;51921;51.518;-3.188;2022-10-18T04:28:24;4;4;
60816;PMS5003;51921;51.518;-3.188;2022-10-18T04:30:49;4;4;
60816;PMS5003;51921;51.518;-3.188;2022-10-18T04:33:15;5;4;
60816;PMS5003;51921;51.518;-3.188;2022-10-18T04:35:40;6;6;
60816;PMS5003;51921;51.518;-3.188;2022-10-18T04:38:06;4;4;
60816;PMS5003;51921;51.518;-3.188;2022-10-18T04:40:31;4;4;
60816;PMS5003;51921;51.518;-3.188;2022-10-18T04:42:57;4;3;
60816;PMS5003;51921;51.518;-3.188;2022-10-18T04:45:22;4;4;
60816;PMS5003;51921;51.518;-3.188;2022-10-18T04:47:48;5;5;
60816;PMS5003;51921;51.518;-3.188;2022-10-18T04:50:13;4;4;
60816;PMS5003;51921;51.518;-3.188;2022-10-18T04:52:39;4;4;
60816;PMS5003;51921;51.518;-3.188;2022-10-18T04:55:05;3;3;
60816;PMS5003;51921;51.518;-3.188;2022-10-18T04:57:30;5;5;
60816;PMS5003;51921;51.518;-3.188;2022-10-18T04:59:56;4;4;
60816;PMS5003;51921;51.518;-3.188;2022-10-18T05:02:21;5;4;
60816;PMS5003;51921;51.518;-3.188;2022-10-18T05:04:47;12;10;
60816;PMS5003;51921;51.518;-3.188;2022-10-18T05:07:12;5;4;
60816;PMS5003;51921;51.518;-3.188;2022-10-18T05:09:38;5;5;
60816;PMS5003;51921;51.518;-3.188;2022-10-18T05:12:04;5;5;
60816;PMS5003;51921;51.518;-3.188;2022-10-18T05:14:29;6;5;
60816;PMS5003;51921;51.518;-3.188;2022-10-18T05:16:55;6;6;
60816;PMS5003;51921;51.518;-3.188;2022-10-18T05:19:20;4;4;
60816;PMS5003;51921;51.518;-3.188;2022-10-18T05:21:46;7;6;
60816;PMS5003;51921;51.518;-3.188;2022-10-18T05:24:11;6;5;
60816;PMS5003;51921;51.518;-3.188;2022-10-18T05:26:37;5;5;
60816;PMS5003;51921;51.518;-3.188;2022-10-18T05:29:03;4;4;
60816;PMS5003;51921;51.518;-3.188;2022-10-18T05:31:28;6;6;
60816;PMS5003;51921;51.518;-3.188;2022-10-18T05:33:54;10;9;
60816;PMS5003;51921;51.518;-3.188;2022-10-18T05:36:19;11;9;
60816;PMS5003;51921;51.518;-3.188;2022-10-18T05:38:45;9;8;
60816;PMS5003;51921;51.518;-3.188;2022-10-18T05:41:11;10;9;
60816;PMS5003;51921;51.518;-3.188;2022-10-18T05:43:36;8;8;
60816;PMS5003;51921;51.518;-3.188;2022-10-18T05:46:02;8;8;
60816;PMS5003;51921;51.518;-3.188;2022-10-18T05:48:27;7;6;
60816;PMS5003;51921;51.518;-3.188;2022-10-18T05:50:53;11;10;
60816;PMS5003;51921;51.518;-3.188;2022-10-18T05:53:18;11;10;
60816;PMS5003;51921;51.518;-3.188;2022-10-18T05:55:44;10;8;
60816;PMS5003;51921;51.518;-3.188;2022-10-18T05:58:09;12;11;
60816;PMS5003;51921;51.518;-3.188;2022-10-18T06:00:35;10;9;
60816;PMS5003;51921;51.518;-3.188;2022-10-18T06:03:00;11;11;
60816;PMS5003;51921;51.518;-3.188;2022-10-18T06:05:26;9;8;
60816;PMS5003;51921;51.518;-3.188;2022-10-18T06:07:51;9;8;
60816;PMS5003;51921;51.518;-3.188;2022-10-18T06:10:17;8;8;
60816;PMS5003;51921;51.518;-3.188;2022-10-18T06:12:43;9;9;
60816;PMS5003;51921;51.518;-3.188;2022-10-18T06:15:08;11;8;
60816;PMS5003;51921;51.518;-3.188;2022-10-18T06:17:33;10;9;
60816;PMS5003;51921;51.518;-3.188;2022-10-18T06:19:59;7;6;
60816;PMS5003;51921;51.518;-3.188;2022-10-18T06:22:24;8;8;
60816;PMS5003;51921;51.518;-3.188;2022-10-18T06:24:50;7;7;
60816;PMS5003;51921;51.518;-3.188;2022-10-18T06:27:15;7;6;
60816;PMS5003;51921;51.518;-3.188;2022-10-18T06:29:41;10;8;
60816;PMS5003;51921;51.518;-3.188;2022-10-18T06:32:06;5;5;
60816;PMS5003;51921;51.518;-3.188;2022-10-18T06:34:32;7;7;
60816;PMS5003;51921;51.518;-3.188;2022-10-18T06:36:57;8;8;
60816;PMS5003;51921;51.518;-3.188;2022-10-18T06:39:23;7;7;
60816;PMS5003;51921;51.518;-3.188;2022-10-18T06:41:48;5;4;
60816;PMS5003;51921;51.518;-3.188;2022-10-18T06:44:14;7;5;
60816;PMS5003;51921;51.518;-3.188;2022-10-18T06:46:39;5;5;
60816;PMS5003;51921;51.518;-3.188;2022-10-18T06:49:05;6;5;
60816;PMS5003;51921;51.518;-3.188;2022-10-18T06:51:30;5;5;
60816;PMS5003;51921;51.518;-3.188;2022-10-18T06:53:56;5;4;
60816;PMS5003;51921;51.518;-3.188;2022-10-18T06:56:21;4;4;
60816;PMS5003;51921;51.518;-3.188;2022-10-18T06:58:47;7;7;
60816;PMS5003;51921;51.518;-3.188;2022-10-18T07:01:13;9;7;
60816;PMS5003;51921;51.518;-3.188;2022-10-18T07:03:38;8;7;
60816;PMS5003;51921;51.518;-3.188;2022-10-18T07:06:06;8;8;
60816;PMS5003;51921;51.518;-3.188;2022-10-18T07:08:29;8;7;
60816;PMS5003;51921;51.518;-3.188;2022-10-18T07:10:54;9;7;
60816;PMS5003;51921;51.518;-3.188;2022-10-18T07:13:20;7;7;
60816;PMS5003;51921;51.518;-3.188;2022-10-18T07:15:45;9;7;
60816;PMS5003;51921;51.518;-3.188;2022-10-18T07:18:11;8;7;
60816;PMS5003;51921;51.518;-3.188;2022-10-18T07:20:36;8;8;
60816;PMS5003;51921;51.518;-3.188;2022-10-18T07:23:02;8;8;
60816;PMS5003;51921;51.518;-3.188;2022-10-18T07:25:27;6;6;
60816;PMS5003;51921;51.518;-3.188;2022-10-18T07:27:53;7;6;
60816;PMS5003;51921;51.518;-3.188;2022-10-18T07:30:18;5;4;
60816;PMS5003;51921;51.518;-3.188;2022-10-18T07:32:44;4;4;
60816;PMS5003;51921;51.518;-3.188;2022-10-18T07:35:09;5;5;
60816;PMS5003;51921;51.518;-3.188;2022-10-18T07:37:35;5;4;
60816;PMS5003;51921;51.518;-3.188;2022-10-18T07:40:00;9;7;
60816;PMS5003;51921;51.518;-3.188;2022-10-18T07:42:26;4;3;
60816;PMS5003;51921;51.518;-3.188;2022-10-18T07:44:51;7;5;
60816;PMS5003;51921;51.518;-3.188;2022-10-18T07:47:17;5;5;
60816;PMS5003;51921;51.518;-3.188;2022-10-18T07:49:42;6;5;
60816;PMS5003;51921;51.518;-3.188;2022-10-18T07:52:08;4;4;
60816;PMS5003;51921;51.518;-3.188;2022-10-18T07:54:33;7;6;
60816;PMS5003;51921;51.518;-3.188;2022-10-18T07:56:59;5;4;
60816;PMS5003;51921;51.518;-3.188;2022-10-18T07:59:24;5;5;
60816;PMS5003;51921;51.518;-3.188;2022-10-18T08:01:50;5;4;
60816;PMS5003;51921;51.518;-3.188;2022-10-18T08:04:15;5;5;
60816;PMS5003;51921;51.518;-3.188;2022-10-18T08:06:40;5;5;
60816;PMS5003;51921;51.518;-3.188;2022-10-18T08:09:06;5;5;
60816;PMS5003;51921;51.518;-3.188;2022-10-18T08:11:31;6;6;
60816;PMS5003;51921;51.518;-3.188;2022-10-18T08:13:57;5;4;
60816;PMS5003;51921;51.518;-3.188;2022-10-18T08:16:23;4;4;
60816;PMS5003;51921;51.518;-3.188;2022-10-18T08:18:48;5;4;
60816;PMS5003;51921;51.518;-3.188;2022-10-18T08:21:14;4;4;
60816;PMS5003;51921;51.518;-3.188;2022-10-18T08:23:39;4;4;
60816;PMS5003;51921;51.518;-3.188;2022-10-18T08:26:05;7;6;
60816;PMS5003;51921;51.518;-3.188;2022-10-18T08:28:30;2;2;
60816;PMS5003;51921;51.518;-3.188;2022-10-18T08:30:55;5;3;
60816;PMS5003;51921;51.518;-3.188;2022-10-18T08:33:21;6;5;
60816;PMS5003;51921;51.518;-3.188;2022-10-18T08:38:11;4;3;
60816;PMS5003;51921;51.518;-3.188;2022-10-18T08:40:41;4;4;
60816;PMS5003;51921;51.518;-3.188;2022-10-18T08:43:04;4;4;
60816;PMS5003;51921;51.518;-3.188;2022-10-18T08:45:28;3;3;
60816;PMS5003;51921;51.518;-3.188;2022-10-18T08:47:53;4;4;
60816;PMS5003;51921;51.518;-3.188;2022-10-18T08:50:19;4;4;
60816;PMS5003;51921;51.518;-3.188;2022-10-18T08:52:47;5;3;
60816;PMS5003;51921;51.518;-3.188;2022-10-18T08:55:10;4;3;
60816;PMS5003;51921;51.518;-3.188;2022-10-18T08:57:35;6;5;
60816;PMS5003;51921;51.518;-3.188;2022-10-18T09:00:01;6;4;
60816;PMS5003;51921;51.518;-3.188;2022-10-18T09:02:31;2;2;
60816;PMS5003;51921;51.518;-3.188;2022-10-18T09:04:54;3;3;
60816;PMS5003;51921;51.518;-3.188;2022-10-18T09:09:43;5;5;
60816;PMS5003;51921;51.518;-3.188;2022-10-18T09:12:12;5;3;
60816;PMS5003;51921;51.518;-3.188;2022-10-18T09:14:38;3;3;
60816;PMS5003;51921;51.518;-3.188;2022-10-18T09:17:01;4;3;
60816;PMS5003;51921;51.518;-3.188;2022-10-18T09:19:27;3;3;
60816;PMS5003;51921;51.518;-3.188;2022-10-18T09:21:51;4;3;
60816;PMS5003;51921;51.518;-3.188;2022-10-18T09:24:17;5;4;
60816;PMS5003;51921;51.518;-3.188;2022-10-18T09:26:42;3;3;
60816;PMS5003;51921;51.518;-3.188;2022-10-18T09:29:08;4;4;
60816;PMS5003;51921;51.518;-3.188;2022-10-18T09:31:36;3;3;
60816;PMS5003;51921;51.518;-3.188;2022-10-18T09:33:57;3;3;
60816;PMS5003;51921;51.518;-3.188;2022-10-18T09:36:23;3;3;
60816;PMS5003;51921;51.518;-3.188;2022-10-18T09:38:48;5;4;
60816;PMS5003;51921;51.518;-3.188;2022-10-18T09:41:15;3;3;
60816;PMS5003;51921;51.518;-3.188;2022-10-18T09:43:41;6;5;
60816;PMS5003;51921;51.518;-3.188;2022-10-18T09:46:03;2;2;
60816;PMS5003;51921;51.518;-3.188;2022-10-18T09:48:30;5;5;
60816;PMS5003;51921;51.518;-3.188;2022-10-18T09:50:56;4;4;
60816;PMS5003;51921;51.518;-3.188;2022-10-18T09:53:22;3;3;
60816;PMS5003;51921;51.518;-3.188;2022-10-18T09:55:51;4;4;
60816;PMS5003;51921;51.518;-3.188;2022-10-18T09:58:11;6;5;
60816;PMS5003;51921;51.518;-3.188;2022-10-18T10:00:37;5;3;
60816;PMS5003;51921;51.518;-3.188;2022-10-18T10:03:04;4;4;
60816;PMS5003;51921;51.518;-3.188;2022-10-18T10:05:27;3;3;
60816;PMS5003;51921;51.518;-3.188;2022-10-18T10:07:56;5;3;
60816;PMS5003;51921;51.518;-3.188;2022-10-18T10:10:19;4;4;
60816;PMS5003;51921;51.518;-3.188;2022-10-18T10:12:44;2;2;
60816;PMS5003;51921;51.518;-3.188;2022-10-18T10:15:14;3;3;
60816;PMS5003;51921;51.518;-3.188;2022-10-18T10:17:34;6;5;
60816;PMS5003;51921;51.518;-3.188;2022-10-18T10:20:01;5;5;
60816;PMS5003;51921;51.518;-3.188;2022-10-18T10:22:25;9;4;
60816;PMS5003;51921;51.518;-3.188;2022-10-18T10:24:51;3;3;
60816;PMS5003;51921;51.518;-3.188;2022-10-18T10:27:17;3;2;
60816;PMS5003;51921;51.518;-3.188;2022-10-18T10:29:49;5;4;
60816;PMS5003;51921;51.518;-3.188;2022-10-18T10:32:10;5;4;
60816;PMS5003;51921;51.518;-3.188;2022-10-18T10:34:32;3;3;
60816;PMS5003;51921;51.518;-3.188;2022-10-18T10:36:57;4;4;
60816;PMS5003;51921;51.518;-3.188;2022-10-18T10:39:23;5;4;
60816;PMS5003;51921;51.518;-3.188;2022-10-18T10:41:49;3;3;
60816;PMS5003;51921;51.518;-3.188;2022-10-18T10:44:14;3;3;
60816;PMS5003;51921;51.518;-3.188;2022-10-18T10:46:39;3;3;
60816;PMS5003;51921;51.518;-3.188;2022-10-18T10:49:05;4;3;
60816;PMS5003;51921;51.518;-3.188;2022-10-18T10:51:31;3;2;
60816;PMS5003;51921;51.518;-3.188;2022-10-18T10:53:58;4;4;
60816;PMS5003;51921;51.518;-3.188;2022-10-18T10:56:23;2;2;
60816;PMS5003;51921;51.518;-3.188;2022-10-18T10:58:47;5;4;
60816;PMS5003;51921;51.518;-3.188;2022-10-18T11:01:18;3;3;
60816;PMS5003;51921;51.518;-3.188;2022-10-18T11:03:38;2;2;
60816;PMS5003;51921;51.518;-3.188;2022-10-18T11:06:03;2;2;
60816;PMS5003;51921;51.518;-3.188;2022-10-18T11:08:30;4;4;
60816;PMS5003;51921;51.518;-3.188;2022-10-18T11:10:57;5;4;
60816;PMS5003;51921;51.518;-3.188;2022-10-18T11:13:21;5;5;
60816;PMS5003;51921;51.518;-3.188;2022-10-18T11:15:45;7;5;
60816;PMS5003;51921;51.518;-3.188;2022-10-18T11:18:14;1;1;
60816;PMS5003;51921;51.518;-3.188;2022-10-18T11:20:36;3;3;
60816;PMS5003;51921;51.518;-3.188;2022-10-18T11:23:02;4;3;
60816;PMS5003;51921;51.518;-3.188;2022-10-18T11:25:31;3;3;
60816;PMS5003;51921;51.518;-3.188;2022-10-18T11:27:53;4;3;
60816;PMS5003;51921;51.518;-3.188;2022-10-18T11:30:28;4;3;
60816;PMS5003;51921;51.518;-3.188;2022-10-18T11:32:44;4;4;
60816;PMS5003;51921;51.518;-3.188;2022-10-18T11:35:14;3;3;
60816;PMS5003;51921;51.518;-3.188;2022-10-18T11:37:37;5;3;
60816;PMS5003;51921;51.518;-3.188;2022-10-18T11:40:01;3;3;
60816;PMS5003;51921;51.518;-3.188;2022-10-18T11:42:26;4;3;
60816;PMS5003;51921;51.518;-3.188;2022-10-18T11:44:52;4;3;
60816;PMS5003;51921;51.518;-3.188;2022-10-18T11:47:17;3;3;
60816;PMS5003;51921;51.518;-3.188;2022-10-18T11:49:45;2;2;
60816;PMS5003;51921;51.518;-3.188;2022-10-18T11:52:07;4;3;
60816;PMS5003;51921;51.518;-3.188;2022-10-18T11:54:36;3;3;
60816;PMS5003;51921;51.518;-3.188;2022-10-18T11:56:58;3;3;
60816;PMS5003;51921;51.518;-3.188;2022-10-18T11:59:26;3;2;
60816;PMS5003;51921;51.518;-3.188;2022-10-18T12:01:51;3;2;
60816;PMS5003;51921;51.518;-3.188;2022-10-18T12:04:14;5;2;
60816;PMS5003;51921;51.518;-3.188;2022-10-18T12:06:40;4;3;
60816;PMS5003;51921;51.518;-3.188;2022-10-18T12:09:07;2;2;
60816;PMS5003;51921;51.518;-3.188;2022-10-18T12:11:30;2;2;
60816;PMS5003;51921;51.518;-3.188;2022-10-18T12:13:56;3;3;
60816;PMS5003;51921;51.518;-3.188;2022-10-18T12:16:20;3;2;
60816;PMS5003;51921;51.518;-3.188;2022-10-18T12:18:48;4;4;
60816;PMS5003;51921;51.518;-3.188;2022-10-18T12:21:11;3;3;
60816;PMS5003;51921;51.518;-3.188;2022-10-18T12:23:40;5;4;
60816;PMS5003;51921;51.518;-3.188;2022-10-18T12:26:02;3;3;
60816;PMS5003;51921;51.518;-3.188;2022-10-18T12:28:33;5;4;
60816;PMS5003;51921;51.518;-3.188;2022-10-18T12:30:53;3;2;
60816;PMS5003;51921;51.518;-3.188;2022-10-18T12:33:18;6;4;
60816;PMS5003;51921;51.518;-3.188;2022-10-18T12:35:46;6;5;
60816;PMS5003;51921;51.518;-3.188;2022-10-18T12:38:13;5;5;
60816;PMS5003;51921;51.518;-3.188;2022-10-18T12:40:35;3;3;
60816;PMS5003;51921;51.518;-3.188;2022-10-18T12:43:02;6;6;
60816;PMS5003;51921;51.518;-3.188;2022-10-18T12:45:26;2;2;
60816;PMS5003;51921;51.518;-3.188;2022-10-18T12:47:51;6;5;
60816;PMS5003;51921;51.518;-3.188;2022-10-18T12:52:41;4;4;
60816;PMS5003;51921;51.518;-3.188;2022-10-18T12:59:57;4;4;
60816;PMS5003;51921;51.518;-3.188;2022-10-18T13:02:26;4;4;
60816;PMS5003;51921;51.518;-3.188;2022-10-18T13:04:48;6;3;
60816;PMS5003;51921;51.518;-3.188;2022-10-18T13:07:18;5;4;
60816;PMS5003;51921;51.518;-3.188;2022-10-18T13:09:40;3;3;
60816;PMS5003;51921;51.518;-3.188;2022-10-18T13:14:33;5;5;
60816;PMS5003;51921;51.518;-3.188;2022-10-18T13:16:57;3;3;
60816;PMS5003;51921;51.518;-3.188;2022-10-18T13:19:22;3;3;
60816;PMS5003;51921;51.518;-3.188;2022-10-18T13:21:48;4;3;
60816;PMS5003;51921;51.518;-3.188;2022-10-18T13:24:16;4;4;
60816;PMS5003;51921;51.518;-3.188;2022-10-18T13:26:40;3;3;
60816;PMS5003;51921;51.518;-3.188;2022-10-18T13:29:20;4;4;
60816;PMS5003;51921;51.518;-3.188;2022-10-18T13:31:29;2;2;
60816;PMS5003;51921;51.518;-3.188;2022-10-18T13:33:53;2;2;
60816;PMS5003;51921;51.518;-3.188;2022-10-18T13:36:19;2;2;
60816;PMS5003;51921;51.518;-3.188;2022-10-18T13:38:45;5;4;
60816;PMS5003;51921;51.518;-3.188;2022-10-18T13:41:10;4;4;
60816;PMS5003;51921;51.518;-3.188;2022-10-18T13:46:00;3;3;
60816;PMS5003;51921;51.518;-3.188;2022-10-18T13:50:51;3;3;
60816;PMS5003;51921;51.518;-3.188;2022-10-18T13:53:22;3;3;
60816;PMS5003;51921;51.518;-3.188;2022-10-18T13:55:47;3;3;
60816;PMS5003;51921;51.518;-3.188;2022-10-18T13:58:09;2;2;
60816;PMS5003;51921;51.518;-3.188;2022-10-18T14:00:35;6;4;
60816;PMS5003;51921;51.518;-3.188;2022-10-18T14:03:08;5;4;
60816;PMS5003;51921;51.518;-3.188;2022-10-18T14:05:41;2;2;
60816;PMS5003;51921;51.518;-3.188;2022-10-18T14:07:49;3;3;
60816;PMS5003;51921;51.518;-3.188;2022-10-18T14:10:19;3;3;
60816;PMS5003;51921;51.518;-3.188;2022-10-18T14:12:42;3;3;
60816;PMS5003;51921;51.518;-3.188;2022-10-18T14:15:06;7;4;
60816;PMS5003;51921;51.518;-3.188;2022-10-18T14:17:34;4;3;
60816;PMS5003;51921;51.518;-3.188;2022-10-18T14:19:57;5;4;
60816;PMS5003;51921;51.518;-3.188;2022-10-18T14:22:22;6;6;
60816;PMS5003;51921;51.518;-3.188;2022-10-18T14:24:49;6;5;
60816;PMS5003;51921;51.518;-3.188;2022-10-18T14:27:16;5;5;
60816;PMS5003;51921;51.518;-3.188;2022-10-18T14:29:38;5;5;
60816;PMS5003;51921;51.518;-3.188;2022-10-18T14:32:06;3;3;
60816;PMS5003;51921;51.518;-3.188;2022-10-18T14:34:29;6;6;
60816;PMS5003;51921;51.518;-3.188;2022-10-18T14:36:54;4;3;
60816;PMS5003;51921;51.518;-3.188;2022-10-18T14:39:20;4;4;
60816;PMS5003;51921;51.518;-3.188;2022-10-18T14:41:47;4;4;
60816;PMS5003;51921;51.518;-3.188;2022-10-18T14:44:15;3;3;
60816;PMS5003;51921;51.518;-3.188;2022-10-18T14:46:40;3;3;
60816;PMS5003;51921;51.518;-3.188;2022-10-18T14:49:02;4;3;
60816;PMS5003;51921;51.518;-3.188;2022-10-18T14:51:28;4;4;
60816;PMS5003;51921;51.518;-3.188;2022-10-18T14:53:52;5;5;
60816;PMS5003;51921;51.518;-3.188;2022-10-18T14:56:19;7;7;
60816;PMS5003;51921;51.518;-3.188;2022-10-18T14:58:43;4;4;
60816;PMS5003;51921;51.518;-3.188;2022-10-18T15:01:12;5;4;
60816;PMS5003;51921;51.518;-3.188;2022-10-18T15:03:34;5;4;
60816;PMS5003;51921;51.518;-3.188;2022-10-18T15:06:00;3;3;
60816;PMS5003;51921;51.518;-3.188;2022-10-18T15:08:25;3;2;
60816;PMS5003;51921;51.518;-3.188;2022-10-18T15:10:51;6;5;
60816;PMS5003;51921;51.518;-3.188;2022-10-18T15:13:16;4;4;
60816;PMS5003;51921;51.518;-3.188;2022-10-18T15:15:41;6;4;
60816;PMS5003;51921;51.518;-3.188;2022-10-18T15:18:12;4;4;
60816;PMS5003;51921;51.518;-3.188;2022-10-18T15:20:33;4;4;
60816;PMS5003;51921;51.518;-3.188;2022-10-18T15:25:23;3;3;
60816;PMS5003;51921;51.518;-3.188;2022-10-18T15:27:49;5;4;
60816;PMS5003;51921;51.518;-3.188;2022-10-18T15:30:16;5;5;
60816;PMS5003;51921;51.518;-3.188;2022-10-18T15:35:05;4;4;
60816;PMS5003;51921;51.518;-3.188;2022-10-18T15:37:31;3;3;
60816;PMS5003;51921;51.518;-3.188;2022-10-18T15:44:47;4;4;
60816;PMS5003;51921;51.518;-3.188;2022-10-18T15:47:15;5;4;
60816;PMS5003;51921;51.518;-3.188;2022-10-18T15:54:28;3;3;
60816;PMS5003;51921;51.518;-3.188;2022-10-18T15:56:54;4;3;
60816;PMS5003;51921;51.518;-3.188;2022-10-18T15:59:20;4;3;
60816;PMS5003;51921;51.518;-3.188;2022-10-18T16:01:44;3;3;
60816;PMS5003;51921;51.518;-3.188;2022-10-18T16:04:12;4;4;
60816;PMS5003;51921;51.518;-3.188;2022-10-18T16:06:35;3;3;
60816;PMS5003;51921;51.518;-3.188;2022-10-18T16:09:00;4;4;
60816;PMS5003;51921;51.518;-3.188;2022-10-18T16:11:26;4;3;
60816;PMS5003;51921;51.518;-3.188;2022-10-18T16:13:51;4;4;
60816;PMS5003;51921;51.518;-3.188;2022-10-18T16:16:17;4;4;
60816;PMS5003;51921;51.518;-3.188;2022-10-18T16:18:42;4;4;
60816;PMS5003;51921;51.518;-3.188;2022-10-18T16:21:12;6;6;
60816;PMS5003;51921;51.518;-3.188;2022-10-18T16:23:33;5;4;
60816;PMS5003;51921;51.518;-3.188;2022-10-18T16:25:58;8;6;
60816;PMS5003;51921;51.518;-3.188;2022-10-18T16:28:24;7;5;
60816;PMS5003;51921;51.518;-3.188;2022-10-18T16:30:51;5;5;
60816;PMS5003;51921;51.518;-3.188;2022-10-18T16:33:14;5;5;
60816;PMS5003;51921;51.518;-3.188;2022-10-18T16:35:40;7;6;
60816;PMS5003;51921;51.518;-3.188;2022-10-18T16:38:07;4;4;
60816;PMS5003;51921;51.518;-3.188;2022-10-18T16:40:31;6;5;
60816;PMS5003;51921;51.518;-3.188;2022-10-18T16:42:56;5;4;
60816;PMS5003;51921;51.518;-3.188;2022-10-18T16:45:21;4;4;
60816;PMS5003;51921;51.518;-3.188;2022-10-18T16:47:47;6;5;
60816;PMS5003;51921;51.518;-3.188;2022-10-18T16:50:13;3;3;
60816;PMS5003;51921;51.518;-3.188;2022-10-18T16:52:38;6;6;
60816;PMS5003;51921;51.518;-3.188;2022-10-18T16:55:04;7;7;
60816;PMS5003;51921;51.518;-3.188;2022-10-18T16:57:29;5;4;
60816;PMS5003;51921;51.518;-3.188;2022-10-18T16:59:55;8;7;